sensor_id;sensor_type;location;lat;lon;timestamp;P1;durP1;ratioP1;P2;durP2;ratioP2
21148;SDS011;10732;51.472;6.466;2023-04-25T00:00:41;22.73;;;8.25;;
21148;SDS011;10732;51.472;6.466;2023-04-25T00:03:06;15.50;;;7.38;;
21148;SDS011;10732;51.472;6.466;2023-04-25T00:05:33;17.52;;;6.90;;
21148;SDS011;10732;51.472;6.466;2023-04-25T00:08:02;24.45;;;7.60;;
21148;SDS011;10732;51.472;6.466;2023-04-25T00:10:28;17.65;;;6.60;;
21148;SDS011;10732;51.472;6.466;2023-04-25T00:12:53;13.32;;;6.82;;
21148;SDS011;10732;51.472;6.466;2023-04-25T00:15:19;14.77;;;7.03;;
21148;SDS011;10732;51.472;6.466;2023-04-25T00:17:44;19.02;;;7.20;;
21148;SDS011;10732;51.472;6.466;2023-04-25T00:20:10;18.30;;;6.97;;
21148;SDS011;10732;51.472;6.466;2023-04-25T00:22:36;15.57;;;6.50;;
21148;SDS011;10732;51.472;6.466;2023-04-25T00:25:03;16.25;;;6.60;;
21148;SDS011;10732;51.472;6.466;2023-04-25T00:27:30;15.23;;;7.13;;
21148;SDS011;10732;51.472;6.466;2023-04-25T00:29:55;16.30;;;6.93;;
21148;SDS011;10732;51.472;6.466;2023-04-25T00:32:21;16.23;;;6.22;;
21148;SDS011;10732;51.472;6.466;2023-04-25T00:34:46;15.32;;;6.45;;
21148;SDS011;10732;51.472;6.466;2023-04-25T00:37:12;14.52;;;6.63;;
21148;SDS011;10732;51.472;6.466;2023-04-25T00:39:37;17.75;;;7.43;;
21148;SDS011;10732;51.472;6.466;2023-04-25T00:42:03;15.10;;;6.93;;
21148;SDS011;10732;51.472;6.466;2023-04-25T00:44:29;15.50;;;7.10;;
21148;SDS011;10732;51.472;6.466;2023-04-25T00:46:57;12.02;;;6.45;;
21148;SDS011;10732;51.472;6.466;2023-04-25T00:49:22;13.45;;;6.22;;
21148;SDS011;10732;51.472;6.466;2023-04-25T00:51:48;15.80;;;6.80;;
21148;SDS011;10732;51.472;6.466;2023-04-25T00:54:14;14.75;;;5.97;;
21148;SDS011;10732;51.472;6.466;2023-04-25T00:56:40;11.93;;;6.18;;
21148;SDS011;10732;51.472;6.466;2023-04-25T00:59:06;15.13;;;5.95;;
21148;SDS011;10732;51.472;6.466;2023-04-25T01:01:34;20.20;;;7.45;;
21148;SDS011;10732;51.472;6.466;2023-04-25T01:04:00;11.35;;;6.03;;
21148;SDS011;10732;51.472;6.466;2023-04-25T01:06:26;14.98;;;6.72;;
21148;SDS011;10732;51.472;6.466;2023-04-25T01:08:52;15.32;;;6.90;;
21148;SDS011;10732;51.472;6.466;2023-04-25T01:11:18;14.68;;;7.00;;
21148;SDS011;10732;51.472;6.466;2023-04-25T01:13:44;19.45;;;7.00;;
21148;SDS011;10732;51.472;6.466;2023-04-25T01:16:09;12.82;;;7.00;;
21148;SDS011;10732;51.472;6.466;2023-04-25T01:18:35;21.52;;;7.22;;
21148;SDS011;10732;51.472;6.466;2023-04-25T01:21:09;16.63;;;7.18;;
21148;SDS011;10732;51.472;6.466;2023-04-25T01:23:37;17.05;;;7.32;;
21148;SDS011;10732;51.472;6.466;2023-04-25T01:26:04;14.52;;;6.90;;
21148;SDS011;10732;51.472;6.466;2023-04-25T01:28:31;15.20;;;6.50;;
21148;SDS011;10732;51.472;6.466;2023-04-25T01:30:59;14.60;;;6.82;;
21148;SDS011;10732;51.472;6.466;2023-04-25T01:33:25;16.08;;;7.05;;
21148;SDS011;10732;51.472;6.466;2023-04-25T01:35:51;14.73;;;6.35;;
21148;SDS011;10732;51.472;6.466;2023-04-25T01:38:16;14.57;;;5.50;;
21148;SDS011;10732;51.472;6.466;2023-04-25T01:40:42;17.70;;;5.50;;
21148;SDS011;10732;51.472;6.466;2023-04-25T01:43:10;14.20;;;5.57;;
21148;SDS011;10732;51.472;6.466;2023-04-25T01:45:37;13.77;;;5.45;;
21148;SDS011;10732;51.472;6.466;2023-04-25T01:48:09;15.50;;;6.30;;
21148;SDS011;10732;51.472;6.466;2023-04-25T01:50:37;14.18;;;5.43;;
21148;SDS011;10732;51.472;6.466;2023-04-25T01:53:04;14.32;;;5.65;;
21148;SDS011;10732;51.472;6.466;2023-04-25T01:55:30;15.73;;;5.82;;
21148;SDS011;10732;51.472;6.466;2023-04-25T01:57:56;12.93;;;5.47;;
21148;SDS011;10732;51.472;6.466;2023-04-25T02:00:21;11.45;;;5.53;;
21148;SDS011;10732;51.472;6.466;2023-04-25T02:02:47;15.10;;;6.15;;
21148;SDS011;10732;51.472;6.466;2023-04-25T02:05:13;17.17;;;5.72;;
21148;SDS011;10732;51.472;6.466;2023-04-25T02:07:38;14.60;;;5.85;;
21148;SDS011;10732;51.472;6.466;2023-04-25T02:10:04;16.80;;;5.97;;
21148;SDS011;10732;51.472;6.466;2023-04-25T02:12:30;14.13;;;5.53;;
21148;SDS011;10732;51.472;6.466;2023-04-25T02:14:56;14.48;;;5.57;;
21148;SDS011;10732;51.472;6.466;2023-04-25T02:17:22;13.32;;;5.72;;
21148;SDS011;10732;51.472;6.466;2023-04-25T02:19:48;17.40;;;6.90;;
21148;SDS011;10732;51.472;6.466;2023-04-25T02:22:13;13.40;;;5.88;;
21148;SDS011;10732;51.472;6.466;2023-04-25T02:24:39;14.80;;;5.78;;
21148;SDS011;10732;51.472;6.466;2023-04-25T02:27:05;11.88;;;6.20;;
21148;SDS011;10732;51.472;6.466;2023-04-25T02:29:31;15.57;;;6.07;;
21148;SDS011;10732;51.472;6.466;2023-04-25T02:31:56;13.90;;;6.60;;
21148;SDS011;10732;51.472;6.466;2023-04-25T02:34:22;14.98;;;6.32;;
21148;SDS011;10732;51.472;6.466;2023-04-25T02:36:48;15.27;;;6.47;;
21148;SDS011;10732;51.472;6.466;2023-04-25T02:39:15;14.50;;;6.38;;
21148;SDS011;10732;51.472;6.466;2023-04-25T02:41:41;16.45;;;7.15;;
21148;SDS011;10732;51.472;6.466;2023-04-25T02:44:07;17.80;;;7.10;;
21148;SDS011;10732;51.472;6.466;2023-04-25T02:46:32;19.40;;;7.15;;
21148;SDS011;10732;51.472;6.466;2023-04-25T02:48:58;17.58;;;6.60;;
21148;SDS011;10732;51.472;6.466;2023-04-25T02:51:23;16.95;;;6.95;;
21148;SDS011;10732;51.472;6.466;2023-04-25T02:53:49;17.10;;;6.72;;
21148;SDS011;10732;51.472;6.466;2023-04-25T02:56:15;19.73;;;7.15;;
21148;SDS011;10732;51.472;6.466;2023-04-25T02:58:40;16.15;;;6.95;;
21148;SDS011;10732;51.472;6.466;2023-04-25T03:01:06;16.67;;;7.10;;
21148;SDS011;10732;51.472;6.466;2023-04-25T03:03:31;15.43;;;6.43;;
21148;SDS011;10732;51.472;6.466;2023-04-25T03:05:57;16.00;;;7.47;;
21148;SDS011;10732;51.472;6.466;2023-04-25T03:08:22;18.45;;;7.50;;
21148;SDS011;10732;51.472;6.466;2023-04-25T03:10:48;17.75;;;6.68;;
21148;SDS011;10732;51.472;6.466;2023-04-25T03:13:16;16.98;;;7.45;;
21148;SDS011;10732;51.472;6.466;2023-04-25T03:15:41;16.67;;;6.07;;
21148;SDS011;10732;51.472;6.466;2023-04-25T03:18:07;20.50;;;6.75;;
21148;SDS011;10732;51.472;6.466;2023-04-25T03:20:32;20.95;;;7.07;;
21148;SDS011;10732;51.472;6.466;2023-04-25T03:22:58;20.02;;;6.68;;
21148;SDS011;10732;51.472;6.466;2023-04-25T03:25:23;21.70;;;7.40;;
21148;SDS011;10732;51.472;6.466;2023-04-25T03:27:49;13.27;;;6.63;;
21148;SDS011;10732;51.472;6.466;2023-04-25T03:30:15;17.80;;;6.47;;
21148;SDS011;10732;51.472;6.466;2023-04-25T03:32:40;23.48;;;7.25;;
21148;SDS011;10732;51.472;6.466;2023-04-25T03:35:06;18.58;;;7.28;;
21148;SDS011;10732;51.472;6.466;2023-04-25T03:37:32;22.50;;;7.82;;
21148;SDS011;10732;51.472;6.466;2023-04-25T03:39:57;20.55;;;7.45;;
21148;SDS011;10732;51.472;6.466;2023-04-25T03:42:23;19.95;;;7.22;;
21148;SDS011;10732;51.472;6.466;2023-04-25T03:44:49;20.02;;;7.40;;
21148;SDS011;10732;51.472;6.466;2023-04-25T03:47:14;17.60;;;6.63;;
21148;SDS011;10732;51.472;6.466;2023-04-25T03:49:40;23.58;;;8.15;;
21148;SDS011;10732;51.472;6.466;2023-04-25T03:52:06;15.30;;;7.28;;
21148;SDS011;10732;51.472;6.466;2023-04-25T03:54:32;29.27;;;8.73;;
21148;SDS011;10732;51.472;6.466;2023-04-25T03:56:57;18.05;;;7.32;;
21148;SDS011;10732;51.472;6.466;2023-04-25T03:59:23;23.25;;;8.20;;
21148;SDS011;10732;51.472;6.466;2023-04-25T04:01:50;22.27;;;7.95;;
21148;SDS011;10732;51.472;6.466;2023-04-25T04:04:15;21.38;;;8.15;;
21148;SDS011;10732;51.472;6.466;2023-04-25T04:06:41;20.58;;;7.50;;
21148;SDS011;10732;51.472;6.466;2023-04-25T04:09:07;18.75;;;7.45;;
21148;SDS011;10732;51.472;6.466;2023-04-25T04:11:35;18.92;;;7.70;;
21148;SDS011;10732;51.472;6.466;2023-04-25T04:14:03;19.55;;;7.20;;
21148;SDS011;10732;51.472;6.466;2023-04-25T04:16:32;22.05;;;8.00;;
21148;SDS011;10732;51.472;6.466;2023-04-25T04:18:57;27.58;;;8.43;;
21148;SDS011;10732;51.472;6.466;2023-04-25T04:21:23;20.17;;;7.63;;
21148;SDS011;10732;51.472;6.466;2023-04-25T04:23:49;21.38;;;8.10;;
21148;SDS011;10732;51.472;6.466;2023-04-25T04:26:14;21.33;;;8.38;;
21148;SDS011;10732;51.472;6.466;2023-04-25T04:28:41;20.23;;;8.52;;
21148;SDS011;10732;51.472;6.466;2023-04-25T04:31:09;17.17;;;8.10;;
21148;SDS011;10732;51.472;6.466;2023-04-25T04:33:35;20.55;;;8.68;;
21148;SDS011;10732;51.472;6.466;2023-04-25T04:36:01;23.05;;;8.80;;
21148;SDS011;10732;51.472;6.466;2023-04-25T04:38:28;21.38;;;9.40;;
21148;SDS011;10732;51.472;6.466;2023-04-25T04:40:54;23.85;;;8.73;;
21148;SDS011;10732;51.472;6.466;2023-04-25T04:43:19;21.63;;;9.32;;
21148;SDS011;10732;51.472;6.466;2023-04-25T04:45:45;22.95;;;9.10;;
21148;SDS011;10732;51.472;6.466;2023-04-25T04:48:10;21.88;;;8.57;;
21148;SDS011;10732;51.472;6.466;2023-04-25T04:50:39;22.00;;;9.00;;
21148;SDS011;10732;51.472;6.466;2023-04-25T04:53:05;21.85;;;9.55;;
21148;SDS011;10732;51.472;6.466;2023-04-25T04:55:30;30.38;;;8.95;;
21148;SDS011;10732;51.472;6.466;2023-04-25T04:57:56;24.48;;;9.10;;
21148;SDS011;10732;51.472;6.466;2023-04-25T05:00:22;26.85;;;9.68;;
21148;SDS011;10732;51.472;6.466;2023-04-25T05:02:47;24.38;;;8.98;;
21148;SDS011;10732;51.472;6.466;2023-04-25T05:05:13;16.55;;;8.45;;
21148;SDS011;10732;51.472;6.466;2023-04-25T05:07:38;20.48;;;7.80;;
21148;SDS011;10732;51.472;6.466;2023-04-25T05:10:04;16.02;;;6.97;;
21148;SDS011;10732;51.472;6.466;2023-04-25T05:12:31;17.83;;;5.97;;
21148;SDS011;10732;51.472;6.466;2023-04-25T05:14:56;11.77;;;5.55;;
21148;SDS011;10732;51.472;6.466;2023-04-25T05:17:22;12.48;;;5.32;;
21148;SDS011;10732;51.472;6.466;2023-04-25T05:19:47;17.33;;;6.05;;
21148;SDS011;10732;51.472;6.466;2023-04-25T05:22:13;15.50;;;5.30;;
21148;SDS011;10732;51.472;6.466;2023-04-25T05:24:38;13.15;;;5.60;;
21148;SDS011;10732;51.472;6.466;2023-04-25T05:27:04;17.25;;;5.63;;
21148;SDS011;10732;51.472;6.466;2023-04-25T05:29:30;15.63;;;6.18;;
21148;SDS011;10732;51.472;6.466;2023-04-25T05:31:56;15.82;;;5.28;;
21148;SDS011;10732;51.472;6.466;2023-04-25T05:34:21;15.93;;;6.38;;
21148;SDS011;10732;51.472;6.466;2023-04-25T05:36:47;19.10;;;5.60;;
21148;SDS011;10732;51.472;6.466;2023-04-25T05:39:16;13.10;;;5.90;;
21148;SDS011;10732;51.472;6.466;2023-04-25T05:41:44;15.18;;;5.65;;
21148;SDS011;10732;51.472;6.466;2023-04-25T05:44:10;18.17;;;5.97;;
21148;SDS011;10732;51.472;6.466;2023-04-25T05:46:35;19.77;;;5.82;;
21148;SDS011;10732;51.472;6.466;2023-04-25T05:49:01;11.90;;;5.50;;
21148;SDS011;10732;51.472;6.466;2023-04-25T05:51:27;11.40;;;5.13;;
21148;SDS011;10732;51.472;6.466;2023-04-25T05:53:52;12.02;;;5.68;;
21148;SDS011;10732;51.472;6.466;2023-04-25T05:56:18;17.55;;;6.13;;
21148;SDS011;10732;51.472;6.466;2023-04-25T05:58:43;17.35;;;5.55;;
21148;SDS011;10732;51.472;6.466;2023-04-25T06:01:09;17.38;;;5.80;;
21148;SDS011;10732;51.472;6.466;2023-04-25T06:03:35;13.68;;;5.13;;
21148;SDS011;10732;51.472;6.466;2023-04-25T06:06:02;12.38;;;5.05;;
21148;SDS011;10732;51.472;6.466;2023-04-25T06:08:28;15.10;;;4.55;;
21148;SDS011;10732;51.472;6.466;2023-04-25T06:10:54;14.63;;;4.45;;
21148;SDS011;10732;51.472;6.466;2023-04-25T06:13:19;11.10;;;3.88;;
21148;SDS011;10732;51.472;6.466;2023-04-25T06:15:45;11.00;;;4.13;;
21148;SDS011;10732;51.472;6.466;2023-04-25T06:18:10;14.05;;;3.95;;
21148;SDS011;10732;51.472;6.466;2023-04-25T06:20:36;10.07;;;3.60;;
21148;SDS011;10732;51.472;6.466;2023-04-25T06:23:01;13.50;;;3.75;;
21148;SDS011;10732;51.472;6.466;2023-04-25T06:25:27;10.68;;;3.55;;
21148;SDS011;10732;51.472;6.466;2023-04-25T06:27:52;11.30;;;3.58;;
21148;SDS011;10732;51.472;6.466;2023-04-25T06:30:18;9.80;;;3.65;;
21148;SDS011;10732;51.472;6.466;2023-04-25T06:32:47;9.63;;;3.55;;
21148;SDS011;10732;51.472;6.466;2023-04-25T06:35:12;11.23;;;3.58;;
21148;SDS011;10732;51.472;6.466;2023-04-25T06:37:38;11.10;;;3.67;;
21148;SDS011;10732;51.472;6.466;2023-04-25T06:40:04;11.85;;;3.60;;
21148;SDS011;10732;51.472;6.466;2023-04-25T06:42:30;12.07;;;3.70;;
21148;SDS011;10732;51.472;6.466;2023-04-25T06:44:56;14.27;;;3.78;;
21148;SDS011;10732;51.472;6.466;2023-04-25T06:47:21;10.63;;;3.65;;
21148;SDS011;10732;51.472;6.466;2023-04-25T06:49:46;10.35;;;3.42;;
21148;SDS011;10732;51.472;6.466;2023-04-25T06:52:12;9.95;;;3.40;;
21148;SDS011;10732;51.472;6.466;2023-04-25T06:54:38;13.82;;;3.53;;
21148;SDS011;10732;51.472;6.466;2023-04-25T06:57:03;10.73;;;3.72;;
21148;SDS011;10732;51.472;6.466;2023-04-25T06:59:29;10.23;;;3.20;;
21148;SDS011;10732;51.472;6.466;2023-04-25T07:01:54;10.05;;;3.47;;
21148;SDS011;10732;51.472;6.466;2023-04-25T07:04:20;11.60;;;3.30;;
21148;SDS011;10732;51.472;6.466;2023-04-25T07:06:46;8.35;;;3.38;;
21148;SDS011;10732;51.472;6.466;2023-04-25T07:09:13;8.18;;;3.08;;
21148;SDS011;10732;51.472;6.466;2023-04-25T07:11:38;7.60;;;2.80;;
21148;SDS011;10732;51.472;6.466;2023-04-25T07:14:04;11.70;;;3.08;;
21148;SDS011;10732;51.472;6.466;2023-04-25T07:16:29;9.98;;;2.80;;
21148;SDS011;10732;51.472;6.466;2023-04-25T07:18:55;8.50;;;3.10;;
21148;SDS011;10732;51.472;6.466;2023-04-25T07:21:21;8.65;;;2.90;;
21148;SDS011;10732;51.472;6.466;2023-04-25T07:23:46;9.13;;;3.17;;
21148;SDS011;10732;51.472;6.466;2023-04-25T07:26:12;7.55;;;3.17;;
21148;SDS011;10732;51.472;6.466;2023-04-25T07:28:38;7.80;;;2.75;;
21148;SDS011;10732;51.472;6.466;2023-04-25T07:31:03;8.43;;;2.80;;
21148;SDS011;10732;51.472;6.466;2023-04-25T07:33:30;9.38;;;2.53;;
21148;SDS011;10732;51.472;6.466;2023-04-25T07:35:55;10.43;;;3.13;;
21148;SDS011;10732;51.472;6.466;2023-04-25T07:38:21;10.73;;;2.80;;
21148;SDS011;10732;51.472;6.466;2023-04-25T07:40:47;8.05;;;2.80;;
21148;SDS011;10732;51.472;6.466;2023-04-25T07:43:13;9.52;;;2.70;;
21148;SDS011;10732;51.472;6.466;2023-04-25T07:45:41;9.68;;;2.40;;
21148;SDS011;10732;51.472;6.466;2023-04-25T07:48:07;6.60;;;2.50;;
21148;SDS011;10732;51.472;6.466;2023-04-25T07:50:33;7.50;;;2.08;;
21148;SDS011;10732;51.472;6.466;2023-04-25T07:52:58;7.30;;;2.53;;
21148;SDS011;10732;51.472;6.466;2023-04-25T07:55:24;8.60;;;2.58;;
21148;SDS011;10732;51.472;6.466;2023-04-25T07:57:50;10.60;;;3.00;;
21148;SDS011;10732;51.472;6.466;2023-04-25T08:00:15;9.27;;;2.55;;
21148;SDS011;10732;51.472;6.466;2023-04-25T08:02:41;9.77;;;2.72;;
21148;SDS011;10732;51.472;6.466;2023-04-25T08:05:07;6.63;;;2.20;;
21148;SDS011;10732;51.472;6.466;2023-04-25T08:07:36;8.65;;;2.60;;
21148;SDS011;10732;51.472;6.466;2023-04-25T08:10:02;8.07;;;2.70;;
21148;SDS011;10732;51.472;6.466;2023-04-25T08:12:28;9.68;;;2.72;;
21148;SDS011;10732;51.472;6.466;2023-04-25T08:14:54;7.03;;;2.55;;
21148;SDS011;10732;51.472;6.466;2023-04-25T08:17:19;7.47;;;2.78;;
21148;SDS011;10732;51.472;6.466;2023-04-25T08:19:45;10.10;;;2.63;;
21148;SDS011;10732;51.472;6.466;2023-04-25T08:22:10;5.10;;;2.35;;
21148;SDS011;10732;51.472;6.466;2023-04-25T08:24:36;7.72;;;2.90;;
21148;SDS011;10732;51.472;6.466;2023-04-25T08:27:01;8.00;;;2.58;;
21148;SDS011;10732;51.472;6.466;2023-04-25T08:29:27;8.55;;;2.40;;
21148;SDS011;10732;51.472;6.466;2023-04-25T08:31:53;7.90;;;2.20;;
21148;SDS011;10732;51.472;6.466;2023-04-25T08:34:18;8.55;;;2.20;;
21148;SDS011;10732;51.472;6.466;2023-04-25T08:36:45;5.13;;;2.17;;
21148;SDS011;10732;51.472;6.466;2023-04-25T08:39:11;7.47;;;1.98;;
21148;SDS011;10732;51.472;6.466;2023-04-25T08:41:36;7.55;;;2.20;;
21148;SDS011;10732;51.472;6.466;2023-04-25T08:44:02;6.65;;;2.15;;
21148;SDS011;10732;51.472;6.466;2023-04-25T08:46:29;7.70;;;2.08;;
21148;SDS011;10732;51.472;6.466;2023-04-25T08:48:57;6.68;;;2.40;;
21148;SDS011;10732;51.472;6.466;2023-04-25T08:51:27;7.53;;;2.20;;
21148;SDS011;10732;51.472;6.466;2023-04-25T08:54:02;5.40;;;1.88;;
21148;SDS011;10732;51.472;6.466;2023-04-25T08:56:35;6.13;;;2.10;;
21148;SDS011;10732;51.472;6.466;2023-04-25T08:59:01;5.25;;;1.80;;
21148;SDS011;10732;51.472;6.466;2023-04-25T09:01:27;4.70;;;1.90;;
21148;SDS011;10732;51.472;6.466;2023-04-25T09:03:53;6.47;;;2.10;;
21148;SDS011;10732;51.472;6.466;2023-04-25T09:06:19;6.93;;;2.22;;
21148;SDS011;10732;51.472;6.466;2023-04-25T09:08:45;9.20;;;2.20;;
21148;SDS011;10732;51.472;6.466;2023-04-25T09:11:10;7.38;;;1.95;;
21148;SDS011;10732;51.472;6.466;2023-04-25T09:13:37;8.07;;;1.63;;
21148;SDS011;10732;51.472;6.466;2023-04-25T09:16:03;8.18;;;2.17;;
21148;SDS011;10732;51.472;6.466;2023-04-25T09:18:29;6.05;;;1.80;;
21148;SDS011;10732;51.472;6.466;2023-04-25T09:20:58;7.57;;;2.28;;
21148;SDS011;10732;51.472;6.466;2023-04-25T09:23:30;7.50;;;1.98;;
21148;SDS011;10732;51.472;6.466;2023-04-25T09:26:15;5.32;;;1.95;;
21148;SDS011;10732;51.472;6.466;2023-04-25T09:28:45;7.75;;;1.83;;
21148;SDS011;10732;51.472;6.466;2023-04-25T09:31:20;8.73;;;1.77;;
21148;SDS011;10732;51.472;6.466;2023-04-25T09:33:50;6.85;;;2.03;;
21148;SDS011;10732;51.472;6.466;2023-04-25T09:36:23;7.18;;;2.22;;
21148;SDS011;10732;51.472;6.466;2023-04-25T09:38:51;8.30;;;1.95;;
21148;SDS011;10732;51.472;6.466;2023-04-25T09:41:22;6.60;;;1.90;;
21148;SDS011;10732;51.472;6.466;2023-04-25T09:43:49;6.95;;;1.80;;
21148;SDS011;10732;51.472;6.466;2023-04-25T09:46:15;7.35;;;1.60;;
21148;SDS011;10732;51.472;6.466;2023-04-25T09:48:47;8.07;;;1.55;;
21148;SDS011;10732;51.472;6.466;2023-04-25T09:51:14;5.53;;;1.60;;
21148;SDS011;10732;51.472;6.466;2023-04-25T09:53:41;7.28;;;2.00;;
21148;SDS011;10732;51.472;6.466;2023-04-25T09:56:16;5.50;;;1.77;;
21148;SDS011;10732;51.472;6.466;2023-04-25T09:58:43;8.18;;;2.15;;
21148;SDS011;10732;51.472;6.466;2023-04-25T10:01:09;9.63;;;1.90;;
21148;SDS011;10732;51.472;6.466;2023-04-25T10:03:39;4.03;;;1.70;;
21148;SDS011;10732;51.472;6.466;2023-04-25T10:06:07;7.80;;;2.08;;
21148;SDS011;10732;51.472;6.466;2023-04-25T10:08:34;6.20;;;1.58;;
21148;SDS011;10732;51.472;6.466;2023-04-25T10:11:05;5.85;;;1.90;;
21148;SDS011;10732;51.472;6.466;2023-04-25T10:13:33;6.18;;;1.90;;
21148;SDS011;10732;51.472;6.466;2023-04-25T10:16:00;5.85;;;1.75;;
21148;SDS011;10732;51.472;6.466;2023-04-25T10:18:29;5.43;;;1.85;;
21148;SDS011;10732;51.472;6.466;2023-04-25T10:20:57;8.95;;;2.10;;
21148;SDS011;10732;51.472;6.466;2023-04-25T10:23:25;6.00;;;2.00;;
21148;SDS011;10732;51.472;6.466;2023-04-25T10:25:52;7.43;;;2.05;;
21148;SDS011;10732;51.472;6.466;2023-04-25T10:28:19;6.55;;;2.03;;
21148;SDS011;10732;51.472;6.466;2023-04-25T10:31:01;6.40;;;2.03;;
21148;SDS011;10732;51.472;6.466;2023-04-25T10:33:39;7.97;;;1.90;;
21148;SDS011;10732;51.472;6.466;2023-04-25T10:36:40;7.38;;;2.20;;
21148;SDS011;10732;51.472;6.466;2023-04-25T10:39:03;7.88;;;2.17;;
21148;SDS011;10732;51.472;6.466;2023-04-25T10:41:31;7.82;;;2.13;;
21148;SDS011;10732;51.472;6.466;2023-04-25T10:44:11;4.65;;;1.80;;
21148;SDS011;10732;51.472;6.466;2023-04-25T10:46:36;7.72;;;2.20;;
21148;SDS011;10732;51.472;6.466;2023-04-25T10:49:03;7.75;;;2.38;;
21148;SDS011;10732;51.472;6.466;2023-04-25T10:51:29;8.88;;;2.25;;
21148;SDS011;10732;51.472;6.466;2023-04-25T10:54:05;7.95;;;2.40;;
21148;SDS011;10732;51.472;6.466;2023-04-25T10:56:33;8.35;;;2.38;;
21148;SDS011;10732;51.472;6.466;2023-04-25T10:59:06;8.18;;;2.30;;
21148;SDS011;10732;51.472;6.466;2023-04-25T11:01:40;8.32;;;2.40;;
21148;SDS011;10732;51.472;6.466;2023-04-25T11:09:51;9.32;;;2.17;;
21148;SDS011;10732;51.472;6.466;2023-04-25T11:12:17;8.20;;;2.15;;
21148;SDS011;10732;51.472;6.466;2023-04-25T11:14:42;6.82;;;2.05;;
21148;SDS011;10732;51.472;6.466;2023-04-25T11:17:08;7.35;;;1.88;;
21148;SDS011;10732;51.472;6.466;2023-04-25T11:19:35;4.55;;;1.67;;
21148;SDS011;10732;51.472;6.466;2023-04-25T11:22:01;5.07;;;1.85;;
21148;SDS011;10732;51.472;6.466;2023-04-25T11:24:32;8.65;;;1.92;;
21148;SDS011;10732;51.472;6.466;2023-04-25T11:27:02;4.68;;;1.70;;
21148;SDS011;10732;51.472;6.466;2023-04-25T11:29:29;6.57;;;1.73;;
21148;SDS011;10732;51.472;6.466;2023-04-25T11:31:56;6.22;;;1.83;;
21148;SDS011;10732;51.472;6.466;2023-04-25T11:34:23;7.18;;;1.75;;
21148;SDS011;10732;51.472;6.466;2023-04-25T11:36:50;8.60;;;1.88;;
21148;SDS011;10732;51.472;6.466;2023-04-25T11:39:17;8.00;;;1.65;;
21148;SDS011;10732;51.472;6.466;2023-04-25T11:41:43;7.43;;;1.95;;
21148;SDS011;10732;51.472;6.466;2023-04-25T11:44:09;7.80;;;1.90;;
21148;SDS011;10732;51.472;6.466;2023-04-25T11:46:35;5.15;;;1.70;;
21148;SDS011;10732;51.472;6.466;2023-04-25T11:49:00;5.03;;;1.55;;
21148;SDS011;10732;51.472;6.466;2023-04-25T11:51:28;5.72;;;1.83;;
21148;SDS011;10732;51.472;6.466;2023-04-25T11:53:53;4.47;;;1.83;;
21148;SDS011;10732;51.472;6.466;2023-04-25T11:56:20;10.75;;;2.08;;
21148;SDS011;10732;51.472;6.466;2023-04-25T12:01:27;6.38;;;1.70;;
21148;SDS011;10732;51.472;6.466;2023-04-25T12:03:57;9.27;;;1.90;;
21148;SDS011;10732;51.472;6.466;2023-04-25T12:06:36;6.10;;;1.88;;
21148;SDS011;10732;51.472;6.466;2023-04-25T12:09:04;7.07;;;1.80;;
21148;SDS011;10732;51.472;6.466;2023-04-25T12:11:32;4.97;;;1.95;;
21148;SDS011;10732;51.472;6.466;2023-04-25T12:14:05;5.38;;;2.10;;
21148;SDS011;10732;51.472;6.466;2023-04-25T12:16:39;6.68;;;1.80;;
21148;SDS011;10732;51.472;6.466;2023-04-25T12:19:08;4.38;;;1.88;;
21148;SDS011;10732;51.472;6.466;2023-04-25T12:21:34;8.00;;;1.73;;
21148;SDS011;10732;51.472;6.466;2023-04-25T12:26:49;7.97;;;2.15;;
21148;SDS011;10732;51.472;6.466;2023-04-25T12:29:23;6.40;;;1.90;;
21148;SDS011;10732;51.472;6.466;2023-04-25T12:31:50;7.15;;;2.00;;
21148;SDS011;10732;51.472;6.466;2023-04-25T12:34:17;6.55;;;2.08;;
21148;SDS011;10732;51.472;6.466;2023-04-25T12:36:43;4.85;;;2.13;;
21148;SDS011;10732;51.472;6.466;2023-04-25T12:39:13;3.55;;;1.73;;
21148;SDS011;10732;51.472;6.466;2023-04-25T12:41:44;8.20;;;1.70;;
21148;SDS011;10732;51.472;6.466;2023-04-25T12:44:11;8.20;;;1.77;;
21148;SDS011;10732;51.472;6.466;2023-04-25T12:46:37;3.67;;;1.50;;
21148;SDS011;10732;51.472;6.466;2023-04-25T12:49:03;6.78;;;1.70;;
21148;SDS011;10732;51.472;6.466;2023-04-25T12:51:31;4.53;;;1.40;;
21148;SDS011;10732;51.472;6.466;2023-04-25T12:53:57;3.55;;;1.33;;
21148;SDS011;10732;51.472;6.466;2023-04-25T12:56:24;5.15;;;1.40;;
21148;SDS011;10732;51.472;6.466;2023-04-25T12:58:50;5.82;;;1.60;;
21148;SDS011;10732;51.472;6.466;2023-04-25T13:01:17;4.43;;;1.58;;
21148;SDS011;10732;51.472;6.466;2023-04-25T13:03:42;6.78;;;1.55;;
21148;SDS011;10732;51.472;6.466;2023-04-25T13:06:08;5.82;;;1.83;;
21148;SDS011;10732;51.472;6.466;2023-04-25T13:08:34;4.45;;;1.55;;
21148;SDS011;10732;51.472;6.466;2023-04-25T13:11:01;3.45;;;1.10;;
21148;SDS011;10732;51.472;6.466;2023-04-25T13:13:27;4.78;;;1.58;;
21148;SDS011;10732;51.472;6.466;2023-04-25T13:15:53;4.15;;;1.33;;
21148;SDS011;10732;51.472;6.466;2023-04-25T13:18:19;4.03;;;1.60;;
21148;SDS011;10732;51.472;6.466;2023-04-25T13:20:45;7.40;;;1.90;;
21148;SDS011;10732;51.472;6.466;2023-04-25T13:23:11;5.80;;;1.73;;
21148;SDS011;10732;51.472;6.466;2023-04-25T13:25:37;5.65;;;1.70;;
21148;SDS011;10732;51.472;6.466;2023-04-25T13:28:02;6.18;;;1.60;;
21148;SDS011;10732;51.472;6.466;2023-04-25T13:30:28;5.43;;;1.70;;
21148;SDS011;10732;51.472;6.466;2023-04-25T13:32:54;6.65;;;1.70;;
21148;SDS011;10732;51.472;6.466;2023-04-25T13:35:21;6.60;;;1.50;;
21148;SDS011;10732;51.472;6.466;2023-04-25T13:37:47;4.70;;;1.75;;
21148;SDS011;10732;51.472;6.466;2023-04-25T13:40:13;6.07;;;1.80;;
21148;SDS011;10732;51.472;6.466;2023-04-25T13:42:38;6.47;;;1.65;;
21148;SDS011;10732;51.472;6.466;2023-04-25T13:45:05;5.72;;;1.80;;
21148;SDS011;10732;51.472;6.466;2023-04-25T13:47:31;4.07;;;1.58;;
21148;SDS011;10732;51.472;6.466;2023-04-25T13:49:57;6.43;;;1.55;;
21148;SDS011;10732;51.472;6.466;2023-04-25T13:52:22;4.65;;;1.40;;
21148;SDS011;10732;51.472;6.466;2023-04-25T13:54:51;6.03;;;1.70;;
21148;SDS011;10732;51.472;6.466;2023-04-25T13:57:17;5.25;;;1.58;;
21148;SDS011;10732;51.472;6.466;2023-04-25T13:59:43;5.30;;;1.48;;
21148;SDS011;10732;51.472;6.466;2023-04-25T14:02:08;4.03;;;1.48;;
21148;SDS011;10732;51.472;6.466;2023-04-25T14:04:34;3.47;;;1.27;;
21148;SDS011;10732;51.472;6.466;2023-04-25T14:07:00;5.53;;;1.67;;
21148;SDS011;10732;51.472;6.466;2023-04-25T14:09:27;6.25;;;1.40;;
21148;SDS011;10732;51.472;6.466;2023-04-25T14:11:54;3.83;;;1.50;;
21148;SDS011;10732;51.472;6.466;2023-04-25T14:14:20;7.13;;;1.50;;
21148;SDS011;10732;51.472;6.466;2023-04-25T14:16:47;5.07;;;1.50;;
21148;SDS011;10732;51.472;6.466;2023-04-25T14:19:13;3.25;;;1.17;;
21148;SDS011;10732;51.472;6.466;2023-04-25T14:21:39;4.35;;;1.33;;
21148;SDS011;10732;51.472;6.466;2023-04-25T14:24:05;3.85;;;1.40;;
21148;SDS011;10732;51.472;6.466;2023-04-25T14:26:31;4.50;;;1.30;;
21148;SDS011;10732;51.472;6.466;2023-04-25T14:28:59;4.80;;;1.70;;
21148;SDS011;10732;51.472;6.466;2023-04-25T14:31:25;6.43;;;1.42;;
21148;SDS011;10732;51.472;6.466;2023-04-25T14:33:50;3.40;;;1.65;;
21148;SDS011;10732;51.472;6.466;2023-04-25T14:36:16;5.90;;;1.92;;
21148;SDS011;10732;51.472;6.466;2023-04-25T14:38:41;4.32;;;1.48;;
21148;SDS011;10732;51.472;6.466;2023-04-25T14:41:07;5.00;;;1.88;;
21148;SDS011;10732;51.472;6.466;2023-04-25T14:43:32;6.10;;;1.55;;
21148;SDS011;10732;51.472;6.466;2023-04-25T14:45:58;7.72;;;1.60;;
21148;SDS011;10732;51.472;6.466;2023-04-25T14:48:24;6.35;;;1.70;;